Herriman, Utah
Current Conditions -  °F | °C
As of 12:53 AM on Saturday 25 Oct 2014 (Local Time) from KSLC Reporting Station
Clear Clear  
Wind Chill: 60°   Ceiling: Unl
Heat Index: 60°   Visibility: 10mi
Dew Point: 30°   Wind: 13mph
Humidity: 32%   Direction: 130°SE
Pressure: 30.09"   Gusts: NA
Location:  40.52°N, 112.03°W
Report Text: KSLC 250653Z 13011KT 10SM CLR 16/M01 A3009 RMK AO2 SLP145 T01561011 402610061
Loading
Personal Weather Stations






























Interactive Weather Map
Tropical Storm Tracking
New forecast layout! Learn more

10-Day Weather Forecast

Advertisements
Track Severe Weather on mobile